Time;durP1;ratioP1;P1;durP2;ratioP2;P2;SDS_P1;SDS_P2;PMS_P1;PMS_P2;Temp;Humidity;BMP_temperature;BMP_pressure;BME280_temperature;BME280_humidity;BME280_pressure;Samples;Min_cycle;Max_cycle;Signal;HPM_P1;HPM_P2
2024/01/18 00:02:22;;;;;;;25.92;16.05;;;;;;;;;;4772258;30;20071;-68
2024/01/18 00:04:50;;;;;;;26.40;16.35;;;;;;;;;;4787911;30;20059;-67
2024/01/18 00:07:17;;;;;;;26.20;15.90;;;;;;;;;;4787592;30;20126;-67
2024/01/18 00:09:45;;;;;;;25.45;15.85;;;;;;;;;;4772028;30;20054;-67
2024/01/18 00:12:13;;;;;;;27.60;16.50;;;;;;;;;;4787396;30;20129;-67
2024/01/18 00:14:40;;;;;;;29.67;18.00;;;;;;;;;;4787694;30;20084;-67
2024/01/18 00:17:08;;;;;;;30.40;17.95;;;;;;;;;;4787902;30;20104;-67
2024/01/18 00:19:35;;;;;;;34.33;19.02;;;;;;;;;;4787683;30;20051;-67
2024/01/18 00:22:03;;;;;;;31.73;20.38;;;;;;;;;;4787691;30;20043;-68
2024/01/18 00:24:31;;;;;;;31.58;20.23;;;;;;;;;;4786970;30;20502;-67
2024/01/18 00:27:00;;;;;;;36.47;19.85;;;;;;;;;;4787536;30;20071;-68
2024/01/18 00:29:28;;;;;;;31.55;20.00;;;;;;;;;;4787674;30;20055;-67
2024/01/18 00:31:55;;;;;;;31.40;19.40;;;;;;;;;;4787676;30;20130;-67
2024/01/18 00:34:23;;;;;;;32.88;19.88;;;;;;;;;;4787458;30;20062;-67
2024/01/18 00:36:51;;;;;;;35.47;19.67;;;;;;;;;;4787326;30;20047;-67
2024/01/18 00:39:20;;;;;;;33.53;19.63;;;;;;;;;;4787491;30;20405;-67
2024/01/18 00:41:48;;;;;;;33.20;19.73;;;;;;;;;;4787405;30;20278;-67
2024/01/18 00:44:15;;;;;;;34.78;19.98;;;;;;;;;;4787347;30;20130;-69
2024/01/18 00:46:43;;;;;;;30.60;18.42;;;;;;;;;;4787669;30;20043;-68
2024/01/18 00:49:11;;;;;;;33.42;18.48;;;;;;;;;;4787323;30;20061;-68
2024/01/18 00:51:39;;;;;;;27.90;17.75;;;;;;;;;;4787265;30;20043;-68
2024/01/18 00:54:06;;;;;;;31.42;18.00;;;;;;;;;;4787169;30;20040;-68
2024/01/18 00:56:34;;;;;;;30.77;18.10;;;;;;;;;;4787261;30;20160;-68
2024/01/18 00:59:02;;;;;;;32.15;18.50;;;;;;;;;;4787279;30;20051;-68
2024/01/18 01:01:29;;;;;;;29.75;18.15;;;;;;;;;;4787179;30;20401;-68
2024/01/18 01:03:57;;;;;;;29.58;17.33;;;;;;;;;;4787243;30;20410;-68
2024/01/18 01:06:24;;;;;;;29.90;17.45;;;;;;;;;;4771501;30;20085;-68
2024/01/18 01:08:52;;;;;;;26.45;16.92;;;;;;;;;;4787089;30;20084;-68
2024/01/18 01:11:20;;;;;;;31.38;19.20;;;;;;;;;;4787149;30;20082;-68
2024/01/18 01:13:48;;;;;;;28.80;17.70;;;;;;;;;;4787044;30;20134;-68
2024/01/18 01:16:15;;;;;;;32.17;18.73;;;;;;;;;;4787089;30;20047;-68
2024/01/18 01:18:43;;;;;;;33.42;19.02;;;;;;;;;;4770938;30;20058;-68
2024/01/18 01:21:11;;;;;;;36.13;19.67;;;;;;;;;;4787102;30;20082;-68
2024/01/18 01:23:48;;;;;;;37.05;19.58;;;;;;;;;;4786916;30;20055;-68
2024/01/18 01:26:16;;;;;;;33.05;20.30;;;;;;;;;;4771219;30;20051;-68
2024/01/18 01:28:44;;;;;;;33.33;19.60;;;;;;;;;;4770980;30;20494;-68
2024/01/18 01:31:11;;;;;;;31.88;20.42;;;;;;;;;;4787079;30;20054;-68
2024/01/18 01:33:41;;;;;;;38.70;20.23;;;;;;;;;;4786914;30;20097;-68
2024/01/18 01:36:09;;;;;;;32.63;20.77;;;;;;;;;;4788948;29;20048;-67
2024/01/18 01:38:37;;;;;;;37.83;21.63;;;;;;;;;;4790585;30;20047;-68
2024/01/18 01:41:05;;;;;;;36.05;21.08;;;;;;;;;;4790351;30;20047;-67
2024/01/18 01:43:33;;;;;;;34.05;21.38;;;;;;;;;;4790286;30;20043;-68
2024/01/18 01:46:00;;;;;;;37.03;21.25;;;;;;;;;;4790231;30;20051;-67
2024/01/18 01:48:29;;;;;;;37.85;21.80;;;;;;;;;;4790250;30;20047;-68
2024/01/18 01:50:57;;;;;;;33.63;21.00;;;;;;;;;;4774162;30;20456;-68
2024/01/18 01:53:25;;;;;;;35.80;21.23;;;;;;;;;;4788787;30;20104;-68
2024/01/18 01:55:52;;;;;;;35.47;21.77;;;;;;;;;;4789884;30;20130;-67
2024/01/18 01:58:22;;;;;;;40.20;21.75;;;;;;;;;;4773963;30;20043;-68
2024/01/18 02:00:50;;;;;;;34.88;20.35;;;;;;;;;;4790159;30;20118;-67
2024/01/18 02:03:17;;;;;;;35.22;20.80;;;;;;;;;;4789705;30;20048;-68
2024/01/18 02:05:45;;;;;;;32.13;21.60;;;;;;;;;;4773789;30;20097;-68
2024/01/18 02:08:13;;;;;;;35.75;20.98;;;;;;;;;;4789841;30;20062;-68
2024/01/18 02:10:40;;;;;;;36.00;20.13;;;;;;;;;;4789729;30;20109;-68
2024/01/18 02:13:08;;;;;;;36.53;21.23;;;;;;;;;;4789625;30;20057;-67
2024/01/18 02:15:36;;;;;;;33.72;21.75;;;;;;;;;;4789552;30;20047;-67
2024/01/18 02:18:03;;;;;;;36.60;20.92;;;;;;;;;;4789610;30;20082;-67
2024/01/18 02:20:31;;;;;;;35.25;20.92;;;;;;;;;;4773620;30;20112;-68
2024/01/18 02:23:01;;;;;;;40.67;22.15;;;;;;;;;;4789483;30;20047;-68
2024/01/18 02:25:28;;;;;;;34.80;21.42;;;;;;;;;;4789508;30;20055;-67
2024/01/18 02:27:56;;;;;;;34.50;21.83;;;;;;;;;;4773482;30;20051;-67
2024/01/18 02:30:24;;;;;;;34.70;21.83;;;;;;;;;;4789329;30;20047;-67
2024/01/18 02:32:52;;;;;;;33.75;21.35;;;;;;;;;;4789361;30;20083;-67
2024/01/18 02:35:21;;;;;;;34.30;21.67;;;;;;;;;;4789298;30;20057;-68
2024/01/18 02:37:48;;;;;;;41.60;21.75;;;;;;;;;;4789676;30;20047;-68
2024/01/18 02:40:16;;;;;;;36.78;21.95;;;;;;;;;;4789110;30;20126;-68
2024/01/18 02:42:43;;;;;;;33.13;20.77;;;;;;;;;;4789587;30;20051;-67
2024/01/18 02:45:11;;;;;;;34.30;21.27;;;;;;;;;;4789147;30;20051;-67
2024/01/18 02:47:39;;;;;;;35.00;21.85;;;;;;;;;;4788496;29;20058;-67
2024/01/18 02:50:08;;;;;;;37.45;21.85;;;;;;;;;;4788929;30;20510;-67
2024/01/18 02:52:38;;;;;;;34.88;21.65;;;;;;;;;;4788944;30;20148;-67
2024/01/18 02:55:06;;;;;;;37.75;22.77;;;;;;;;;;4788998;30;20107;-68
2024/01/18 02:57:34;;;;;;;37.05;21.85;;;;;;;;;;4789149;30;20090;-67
2024/01/18 03:00:02;;;;;;;38.33;22.20;;;;;;;;;;4788946;30;20047;-67
2024/01/18 03:02:29;;;;;;;35.58;22.17;;;;;;;;;;4788897;30;20043;-68
2024/01/18 03:04:57;;;;;;;34.38;21.13;;;;;;;;;;4789108;30;20059;-68
2024/01/18 03:07:24;;;;;;;35.10;21.50;;;;;;;;;;4788591;30;20050;-68
2024/01/18 03:09:52;;;;;;;36.30;20.83;;;;;;;;;;4772856;30;20087;-67
2024/01/18 03:12:19;;;;;;;33.55;21.08;;;;;;;;;;4788736;30;20122;-68
2024/01/18 03:14:47;;;;;;;34.30;21.02;;;;;;;;;;4788797;30;20055;-68
2024/01/18 03:17:15;;;;;;;32.38;21.50;;;;;;;;;;4772359;30;20114;-67
2024/01/18 03:19:42;;;;;;;34.63;21.65;;;;;;;;;;4788767;30;20100;-68
2024/01/18 03:22:10;;;;;;;37.72;21.08;;;;;;;;;;4788455;30;20502;-67
2024/01/18 03:24:37;;;;;;;35.38;22.00;;;;;;;;;;4788414;30;20082;-67
2024/01/18 03:27:05;;;;;;;32.67;21.63;;;;;;;;;;4788460;30;20055;-68
2024/01/18 03:29:33;;;;;;;32.58;21.15;;;;;;;;;;4788834;30;20055;-67
2024/01/18 03:32:00;;;;;;;36.45;21.75;;;;;;;;;;4788362;30;20070;-67
2024/01/18 03:34:28;;;;;;;36.78;22.85;;;;;;;;;;4788299;30;20108;-68
2024/01/18 03:36:56;;;;;;;36.40;22.45;;;;;;;;;;4772052;30;20059;-67
2024/01/18 03:39:23;;;;;;;34.67;21.33;;;;;;;;;;4788478;30;20104;-68
2024/01/18 03:41:52;;;;;;;36.17;21.23;;;;;;;;;;4788195;30;20565;-67
2024/01/18 03:44:19;;;;;;;36.97;22.80;;;;;;;;;;4788138;30;20047;-68
2024/01/18 03:46:47;;;;;;;33.10;21.23;;;;;;;;;;4788351;30;20071;-68
2024/01/18 03:49:14;;;;;;;35.67;21.08;;;;;;;;;;4772183;30;20081;-68
2024/01/18 03:51:42;;;;;;;33.85;20.95;;;;;;;;;;4788104;30;20050;-68
2024/01/18 03:54:10;;;;;;;34.22;20.38;;;;;;;;;;4787898;30;20101;-68
2024/01/18 03:56:38;;;;;;;31.17;20.73;;;;;;;;;;4788097;30;20108;-68
2024/01/18 03:59:06;;;;;;;31.02;20.15;;;;;;;;;;4770462;30;20490;-68
2024/01/18 04:01:34;;;;;;;34.25;21.65;;;;;;;;;;4771669;30;20502;-68
2024/01/18 04:04:02;;;;;;;35.95;21.20;;;;;;;;;;4787897;30;20047;-68
2024/01/18 04:06:30;;;;;;;36.88;22.00;;;;;;;;;;4788068;30;20554;-68
2024/01/18 04:08:58;;;;;;;37.63;22.05;;;;;;;;;;4787793;30;20094;-69
2024/01/18 04:11:25;;;;;;;37.83;22.85;;;;;;;;;;4787730;30;20078;-68
2024/01/18 04:13:53;;;;;;;36.05;20.73;;;;;;;;;;4787613;30;20051;-68
2024/01/18 04:16:20;;;;;;;34.75;22.35;;;;;;;;;;4787675;30;20521;-68
2024/01/18 04:18:48;;;;;;;36.47;21.73;;;;;;;;;;4771660;30;20063;-68
2024/01/18 04:21:16;;;;;;;33.45;20.65;;;;;;;;;;4771689;30;20594;-68
2024/01/18 04:23:44;;;;;;;38.10;21.35;;;;;;;;;;4787707;30;20110;-68
2024/01/18 04:26:11;;;;;;;33.20;19.92;;;;;;;;;;4787526;30;20051;-68
2024/01/18 04:28:39;;;;;;;33.30;21.08;;;;;;;;;;4787604;30;20078;-68
2024/01/18 04:31:06;;;;;;;33.50;20.83;;;;;;;;;;4786838;30;20039;-68
2024/01/18 04:33:34;;;;;;;34.42;20.23;;;;;;;;;;4787148;30;20057;-68
2024/01/18 04:36:02;;;;;;;33.00;21.15;;;;;;;;;;4787516;30;20055;-68
2024/01/18 04:38:30;;;;;;;36.63;21.48;;;;;;;;;;4787453;30;20058;-68
2024/01/18 04:40:58;;;;;;;35.03;20.73;;;;;;;;;;4787437;30;20047;-68
2024/01/18 04:43:25;;;;;;;43.58;21.80;;;;;;;;;;4770994;30;20047;-68
2024/01/18 04:45:53;;;;;;;34.55;20.35;;;;;;;;;;4787357;30;20075;-68
2024/01/18 04:48:22;;;;;;;29.60;19.15;;;;;;;;;;4787462;30;20162;-68
2024/01/18 04:50:50;;;;;;;31.92;19.75;;;;;;;;;;4787384;30;20104;-68
2024/01/18 04:53:17;;;;;;;32.67;19.45;;;;;;;;;;4787320;30;20074;-68
2024/01/18 04:55:45;;;;;;;34.17;19.50;;;;;;;;;;4786980;30;20083;-68
2024/01/18 04:58:12;;;;;;;32.95;18.48;;;;;;;;;;4787267;30;20075;-68
2024/01/18 05:00:40;;;;;;;30.27;19.48;;;;;;;;;;4787221;30;20509;-68
2024/01/18 05:03:08;;;;;;;28.92;19.02;;;;;;;;;;4787670;30;20118;-69
2024/01/18 05:05:37;;;;;;;30.08;18.15;;;;;;;;;;4787052;30;20136;-68
2024/01/18 05:08:07;;;;;;;29.50;17.88;;;;;;;;;;4787108;30;20051;-68
2024/01/18 05:10:35;;;;;;;27.52;17.80;;;;;;;;;;4787151;29;20498;-68
2024/01/18 05:13:02;;;;;;;31.90;18.90;;;;;;;;;;4790561;30;20043;-69
2024/01/18 05:15:30;;;;;;;30.20;18.13;;;;;;;;;;4790489;29;20051;-69
2024/01/18 05:17:59;;;;;;;30.45;18.58;;;;;;;;;;4790632;29;20075;-70
2024/01/18 05:20:28;;;;;;;31.83;19.35;;;;;;;;;;4790490;29;20057;-69
2024/01/18 05:22:56;;;;;;;32.38;19.52;;;;;;;;;;4790517;29;20498;-70
2024/01/18 05:25:24;;;;;;;32.85;19.77;;;;;;;;;;4790323;29;20146;-70
2024/01/18 05:27:51;;;;;;;39.00;20.85;;;;;;;;;;4790670;29;20071;-70
2024/01/18 05:30:20;;;;;;;33.53;19.83;;;;;;;;;;4790495;29;20524;-70
2024/01/18 05:32:48;;;;;;;31.33;20.38;;;;;;;;;;4788953;30;20055;-70
2024/01/18 05:35:16;;;;;;;36.45;21.60;;;;;;;;;;4790173;30;20505;-70
2024/01/18 05:37:43;;;;;;;42.50;23.52;;;;;;;;;;4790250;29;20075;-69
2024/01/18 05:40:11;;;;;;;56.25;27.67;;;;;;;;;;4790432;30;20117;-70
2024/01/18 05:42:39;;;;;;;45.55;24.10;;;;;;;;;;4790332;29;20126;-70
2024/01/18 05:45:07;;;;;;;37.38;22.77;;;;;;;;;;4790509;29;20051;-70
2024/01/18 05:47:34;;;;;;;49.45;25.20;;;;;;;;;;4790169;30;20059;-70
2024/01/18 05:50:02;;;;;;;43.78;24.67;;;;;;;;;;4789772;30;20134;-70
2024/01/18 05:52:30;;;;;;;38.15;24.00;;;;;;;;;;4788711;30;20109;-70
2024/01/18 05:54:58;;;;;;;44.47;25.48;;;;;;;;;;4790089;29;20048;-70
2024/01/18 05:57:26;;;;;;;39.75;24.10;;;;;;;;;;4788999;30;20489;-70
2024/01/18 05:59:54;;;;;;;39.47;23.60;;;;;;;;;;4790017;30;20050;-70
2024/01/18 06:02:21;;;;;;;42.83;25.02;;;;;;;;;;4789818;30;20063;-70
2024/01/18 06:04:49;;;;;;;48.03;28.08;;;;;;;;;;4789936;30;20078;-70
2024/01/18 06:07:16;;;;;;;41.20;24.23;;;;;;;;;;4774506;30;20054;-70
2024/01/18 06:09:44;;;;;;;36.75;23.60;;;;;;;;;;4789860;30;20090;-70
2024/01/18 06:12:12;;;;;;;40.78;22.30;;;;;;;;;;4789938;30;20050;-70
2024/01/18 06:14:39;;;;;;;37.35;23.38;;;;;;;;;;4789723;30;20055;-70
2024/01/18 06:17:10;;;;;;;44.38;23.80;;;;;;;;;;4789825;30;20215;-70
2024/01/18 06:19:38;;;;;;;39.38;22.77;;;;;;;;;;4790130;30;20047;-70
2024/01/18 06:22:06;;;;;;;38.15;21.80;;;;;;;;;;4789087;29;20039;-70
2024/01/18 06:24:33;;;;;;;40.97;22.17;;;;;;;;;;4789702;30;20124;-70
2024/01/18 06:27:01;;;;;;;38.40;22.45;;;;;;;;;;4789545;30;20086;-70
2024/01/18 06:29:30;;;;;;;38.53;22.92;;;;;;;;;;4789528;30;20546;-70
2024/01/18 06:31:58;;;;;;;40.85;25.38;;;;;;;;;;4789582;30;20450;-70
2024/01/18 06:34:27;;;;;;;47.17;27.10;;;;;;;;;;4789414;30;20047;-70
2024/01/18 06:36:55;;;;;;;46.88;28.65;;;;;;;;;;4788386;30;20494;-70
2024/01/18 06:39:22;;;;;;;52.05;30.52;;;;;;;;;;4789645;30;20379;-69
2024/01/18 06:41:50;;;;;;;74.10;38.83;;;;;;;;;;4788244;30;20093;-69
2024/01/18 06:44:17;;;;;;;68.00;37.42;;;;;;;;;;4789381;30;20043;-69
2024/01/18 06:46:45;;;;;;;71.30;38.40;;;;;;;;;;4789306;30;20097;-70
2024/01/18 06:49:13;;;;;;;82.20;41.38;;;;;;;;;;4789115;30;20132;-70
2024/01/18 06:51:41;;;;;;;72.28;39.55;;;;;;;;;;4789355;30;20039;-70
2024/01/18 06:54:08;;;;;;;58.90;33.25;;;;;;;;;;4789235;30;20043;-70
2024/01/18 06:56:37;;;;;;;60.10;33.65;;;;;;;;;;4802754;29;20051;-70
2024/01/18 06:59:05;;;;;;;63.38;35.72;;;;;;;;;;4788090;30;20111;-70
2024/01/18 07:01:33;;;;;;;62.95;35.60;;;;;;;;;;4789189;30;20451;-70
2024/01/18 07:04:01;;;;;;;55.50;32.95;;;;;;;;;;4789281;30;20047;-70
2024/01/18 07:06:29;;;;;;;62.03;34.78;;;;;;;;;;4789162;30;20047;-70
2024/01/18 07:08:57;;;;;;;69.30;37.65;;;;;;;;;;4789120;30;20058;-70
2024/01/18 07:11:24;;;;;;;60.22;35.40;;;;;;;;;;4788854;30;20047;-70
2024/01/18 07:13:52;;;;;;;64.00;35.75;;;;;;;;;;4788757;30;20419;-70
2024/01/18 07:16:19;;;;;;;56.05;34.60;;;;;;;;;;4788933;30;20058;-70
2024/01/18 07:18:48;;;;;;;59.90;35.17;;;;;;;;;;4788636;30;20130;-70
2024/01/18 07:21:16;;;;;;;66.30;38.22;;;;;;;;;;4788762;30;20446;-70
2024/01/18 07:23:43;;;;;;;63.53;38.63;;;;;;;;;;4788444;30;20051;-70
2024/01/18 07:26:11;;;;;;;68.05;41.60;;;;;;;;;;4802362;29;20055;-70
2024/01/18 07:28:38;;;;;;;71.10;41.45;;;;;;;;;;4788715;30;20043;-69
2024/01/18 07:31:06;;;;;;;71.63;41.25;;;;;;;;;;4788571;30;20504;-70
2024/01/18 07:33:34;;;;;;;66.38;40.25;;;;;;;;;;4788304;29;20058;-70
2024/01/18 07:36:02;;;;;;;66.22;39.67;;;;;;;;;;4788320;30;20054;-70
2024/01/18 07:38:30;;;;;;;72.63;40.20;;;;;;;;;;4788345;30;20053;-70
2024/01/18 07:40:57;;;;;;;78.72;43.13;;;;;;;;;;4788265;30;20497;-70
2024/01/18 07:43:25;;;;;;;78.43;46.70;;;;;;;;;;4788371;30;20138;-72
2024/01/18 07:45:52;;;;;;;78.50;44.10;;;;;;;;;;4788796;30;20134;-70
2024/01/18 07:48:20;;;;;;;76.53;44.97;;;;;;;;;;4786916;30;20112;-71
2024/01/18 07:50:48;;;;;;;74.57;44.88;;;;;;;;;;4788216;30;20502;-71
2024/01/18 07:53:15;;;;;;;69.22;41.13;;;;;;;;;;4788410;29;20405;-71
2024/01/18 07:55:43;;;;;;;76.43;44.35;;;;;;;;;;4788090;30;20485;-71
2024/01/18 07:58:11;;;;;;;59.00;37.35;;;;;;;;;;4787945;30;20055;-71
2024/01/18 08:00:38;;;;;;;58.30;36.40;;;;;;;;;;4787913;30;20054;-71
2024/01/18 08:03:06;;;;;;;55.55;33.42;;;;;;;;;;4788451;29;20051;-70
2024/01/18 08:05:36;;;;;;;54.35;32.88;;;;;;;;;;4787100;30;20109;-70
2024/01/18 08:08:04;;;;;;;65.80;35.72;;;;;;;;;;4787950;30;20051;-71
2024/01/18 08:10:32;;;;;;;56.00;33.55;;;;;;;;;;4787971;30;20059;-70
2024/01/18 08:13:01;;;;;;;54.28;30.80;;;;;;;;;;4787801;30;20055;-71
2024/01/18 08:15:29;;;;;;;48.53;29.88;;;;;;;;;;4787826;30;20047;-71
2024/01/18 08:17:56;;;;;;;52.08;29.67;;;;;;;;;;4787958;30;20491;-72
2024/01/18 08:20:24;;;;;;;49.72;33.20;;;;;;;;;;4787674;30;20051;-71
2024/01/18 08:22:51;;;;;;;52.80;32.25;;;;;;;;;;4786613;30;20152;-70
2024/01/18 08:25:19;;;;;;;53.42;31.70;;;;;;;;;;4787629;30;20051;-71
2024/01/18 08:27:47;;;;;;;49.78;30.65;;;;;;;;;;4787642;30;20051;-71
2024/01/18 08:30:14;;;;;;;46.97;30.30;;;;;;;;;;4787842;30;20059;-70
2024/01/18 08:32:42;;;;;;;49.85;27.38;;;;;;;;;;4787703;30;20427;-71
2024/01/18 08:35:10;;;;;;;48.58;28.48;;;;;;;;;;4787426;30;20043;-70
2024/01/18 08:37:37;;;;;;;40.28;25.50;;;;;;;;;;4786548;30;20493;-70
2024/01/18 08:40:06;;;;;;;44.45;26.70;;;;;;;;;;4787501;30;20406;-70
2024/01/18 08:42:35;;;;;;;43.65;27.50;;;;;;;;;;4786521;30;20082;-71
2024/01/18 08:45:04;;;;;;;45.70;29.45;;;;;;;;;;4787017;30;20100;-71
2024/01/18 08:47:32;;;;;;;41.70;26.75;;;;;;;;;;4787477;30;20081;-70
2024/01/18 08:50:00;;;;;;;47.17;29.48;;;;;;;;;;4787466;30;20084;-71
2024/01/18 08:52:28;;;;;;;48.28;28.75;;;;;;;;;;4787553;30;20039;-71
2024/01/18 08:54:55;;;;;;;48.60;29.45;;;;;;;;;;4786528;30;20058;-71
2024/01/18 08:57:23;;;;;;;48.83;30.30;;;;;;;;;;4787317;30;20138;-71
2024/01/18 08:59:51;;;;;;;57.13;31.95;;;;;;;;;;4787709;29;20534;-71
2024/01/18 09:02:18;;;;;;;58.25;32.35;;;;;;;;;;4786393;30;20051;-70
2024/01/18 09:04:51;;;;;;;49.67;32.60;;;;;;;;;;4787694;30;20043;-70
2024/01/18 09:07:19;;;;;;;50.75;31.52;;;;;;;;;;4786243;30;20047;-70
2024/01/18 09:09:48;;;;;;;54.33;32.08;;;;;;;;;;4787216;30;20031;-70
2024/01/18 09:12:15;;;;;;;53.83;32.97;;;;;;;;;;4786203;30;20057;-70
2024/01/18 09:14:45;;;;;;;53.30;33.08;;;;;;;;;;4786085;30;20561;-69
2024/01/18 09:17:12;;;;;;;59.38;36.65;;;;;;;;;;4787190;30;20043;-69
2024/01/18 09:19:41;;;;;;;66.90;40.28;;;;;;;;;;4786044;30;20129;-70
2024/01/18 09:22:09;;;;;;;63.25;38.38;;;;;;;;;;4787170;30;20047;-70
2024/01/18 09:24:37;;;;;;;59.55;34.28;;;;;;;;;;4786934;30;20059;-70
2024/01/18 09:27:05;;;;;;;52.53;32.47;;;;;;;;;;4787224;30;20040;-70
2024/01/18 09:29:33;;;;;;;56.03;34.63;;;;;;;;;;4800839;29;20071;-70
2024/01/18 09:32:00;;;;;;;48.55;29.95;;;;;;;;;;4771317;30;20434;-70
2024/01/18 09:34:28;;;;;;;44.25;29.00;;;;;;;;;;4787136;30;20082;-70
2024/01/18 09:36:57;;;;;;;46.30;27.30;;;;;;;;;;4785850;30;20054;-70
2024/01/18 09:39:25;;;;;;;42.03;28.00;;;;;;;;;;4785958;30;20046;-70
2024/01/18 09:41:53;;;;;;;40.25;26.10;;;;;;;;;;4786960;30;20147;-70
2024/01/18 09:44:25;;;;;;;39.17;27.15;;;;;;;;;;4787105;30;20043;-70
2024/01/18 09:46:53;;;;;;;40.15;25.65;;;;;;;;;;4787052;30;20047;-70
2024/01/18 09:49:21;;;;;;;35.80;24.08;;;;;;;;;;4786943;30;20105;-69
2024/01/18 09:51:51;;;;;;;39.15;23.38;;;;;;;;;;4787185;30;20051;-69
2024/01/18 09:54:19;;;;;;;33.15;22.50;;;;;;;;;;4800578;29;20058;-69
2024/01/18 09:56:48;;;;;;;33.03;21.38;;;;;;;;;;4786754;29;20043;-69
2024/01/18 09:59:16;;;;;;;33.15;21.52;;;;;;;;;;4790019;30;20051;-69
2024/01/18 10:01:45;;;;;;;35.05;22.05;;;;;;;;;;4790157;30;20518;-69
2024/01/18 10:04:13;;;;;;;35.75;23.45;;;;;;;;;;4790094;30;20051;-69
2024/01/18 10:06:41;;;;;;;28.48;18.42;;;;;;;;;;4790039;30;20042;-69
2024/01/18 10:09:14;;;;;;;25.85;16.80;;;;;;;;;;4789810;30;20478;-69
2024/01/18 10:11:46;;;;;;;28.50;17.63;;;;;;;;;;4790086;30;20050;-69
2024/01/18 10:14:15;;;;;;;32.67;19.92;;;;;;;;;;4789892;30;20078;-69
2024/01/18 10:16:42;;;;;;;27.70;18.25;;;;;;;;;;4789610;30;20047;-69
2024/01/18 10:19:18;;;;;;;29.33;18.33;;;;;;;;;;4789925;30;20127;-68
2024/01/18 10:21:47;;;;;;;27.83;18.60;;;;;;;;;;4788306;30;20108;-69
2024/01/18 10:24:17;;;;;;;24.55;16.35;;;;;;;;;;4789688;30;20063;-68
2024/01/18 10:26:45;;;;;;;26.30;16.50;;;;;;;;;;4789677;30;20520;-68
2024/01/18 10:29:12;;;;;;;24.23;15.35;;;;;;;;;;4789873;30;20079;-68
2024/01/18 10:31:42;;;;;;;24.08;15.98;;;;;;;;;;4789593;30;20047;-68
2024/01/18 10:34:10;;;;;;;25.02;16.40;;;;;;;;;;4789733;30;20105;-68
2024/01/18 10:36:38;;;;;;;20.25;14.82;;;;;;;;;;4773934;30;20053;-68
2024/01/18 10:39:17;;;;;;;21.10;14.75;;;;;;;;;;4789419;30;20055;-68
2024/01/18 10:41:48;;;;;;;20.60;14.50;;;;;;;;;;4789458;30;20043;-68
2024/01/18 10:44:16;;;;;;;22.13;14.75;;;;;;;;;;4789297;30;20047;-69
2024/01/18 10:46:44;;;;;;;23.73;16.25;;;;;;;;;;4789358;30;20417;-69
2024/01/18 10:49:11;;;;;;;21.23;14.93;;;;;;;;;;4789260;30;20043;-69
2024/01/18 10:51:40;;;;;;;24.83;16.33;;;;;;;;;;4789398;30;20043;-70
2024/01/18 10:54:09;;;;;;;23.73;16.92;;;;;;;;;;4803253;29;20138;-68
2024/01/18 10:56:56;;;;;;;25.70;15.90;;;;;;;;;;4789237;30;20075;-68
2024/01/18 10:59:24;;;;;;;24.73;16.10;;;;;;;;;;4789037;30;20105;-68
2024/01/18 11:01:55;;;;;;;21.92;14.88;;;;;;;;;;4789060;30;20130;-68
2024/01/18 11:04:23;;;;;;;21.23;15.75;;;;;;;;;;4789317;30;20069;-68
2024/01/18 11:06:51;;;;;;;27.35;15.80;;;;;;;;;;4789083;30;20486;-68
2024/01/18 11:09:20;;;;;;;23.08;15.27;;;;;;;;;;4772807;30;20055;-70
2024/01/18 11:11:48;;;;;;;22.63;14.93;;;;;;;;;;4788865;30;20047;-69
2024/01/18 11:14:18;;;;;;;25.33;15.10;;;;;;;;;;4788874;30;20086;-69
2024/01/18 11:16:46;;;;;;;24.77;14.52;;;;;;;;;;4788998;30;20058;-69
2024/01/18 11:19:17;;;;;;;23.25;15.02;;;;;;;;;;4788736;30;20047;-69
2024/01/18 11:21:45;;;;;;;24.67;16.35;;;;;;;;;;4788765;30;20043;-69
2024/01/18 11:24:14;;;;;;;24.60;16.05;;;;;;;;;;4788399;30;20059;-69
2024/01/18 11:26:42;;;;;;;26.02;16.98;;;;;;;;;;4788582;30;20047;-69
2024/01/18 11:29:17;;;;;;;24.25;15.60;;;;;;;;;;4787623;30;20057;-69
2024/01/18 11:31:52;;;;;;;26.23;15.93;;;;;;;;;;4787353;30;20459;-69
2024/01/18 11:34:30;;;;;;;24.05;16.25;;;;;;;;;;4788705;29;20062;-70
2024/01/18 11:37:11;;;;;;;27.23;18.40;;;;;;;;;;4788404;30;20588;-69
2024/01/18 11:39:47;;;;;;;25.83;16.85;;;;;;;;;;4788743;30;20047;-70
2024/01/18 11:42:25;;;;;;;23.05;15.35;;;;;;;;;;4788691;30;20113;-68
2024/01/18 11:45:04;;;;;;;24.70;16.10;;;;;;;;;;4788122;30;20043;-68
2024/01/18 11:47:32;;;;;;;24.20;16.38;;;;;;;;;;4788081;30;20047;-69
2024/01/18 11:50:08;;;;;;;24.95;16.23;;;;;;;;;;4788005;30;20047;-68
2024/01/18 11:52:38;;;;;;;23.23;14.50;;;;;;;;;;4788178;30;20056;-68
2024/01/18 11:55:06;;;;;;;21.67;14.68;;;;;;;;;;4801784;29;20510;-68
2024/01/18 11:57:33;;;;;;;21.80;14.65;;;;;;;;;;4787211;30;20051;-63
2024/01/18 12:00:02;;;;;;;22.40;14.07;;;;;;;;;;4788273;30;20065;-69
2024/01/18 12:02:37;;;;;;;19.75;13.45;;;;;;;;;;4787695;30;20403;-71
2024/01/18 12:05:08;;;;;;;21.02;14.43;;;;;;;;;;4787917;30;20058;-68
2024/01/18 12:07:38;;;;;;;20.73;14.35;;;;;;;;;;4787824;29;20530;-70
2024/01/18 12:10:07;;;;;;;22.08;14.20;;;;;;;;;;4787685;29;20570;-69
2024/01/18 12:12:36;;;;;;;21.17;14.55;;;;;;;;;;4787957;30;20565;-70
2024/01/18 12:15:03;;;;;;;22.30;15.30;;;;;;;;;;4787844;30;20043;-70
2024/01/18 12:17:31;;;;;;;20.63;14.45;;;;;;;;;;4772077;30;20128;-70
2024/01/18 12:19:59;;;;;;;22.63;14.43;;;;;;;;;;4787402;30;20047;-70
2024/01/18 12:22:27;;;;;;;22.13;14.80;;;;;;;;;;4787743;30;20093;-70
2024/01/18 12:24:54;;;;;;;20.33;15.02;;;;;;;;;;4787706;30;20055;-70
2024/01/18 12:27:23;;;;;;;21.33;14.55;;;;;;;;;;4787819;30;20047;-70
2024/01/18 12:29:54;;;;;;;21.92;14.75;;;;;;;;;;4787719;30;20047;-70
2024/01/18 12:32:23;;;;;;;21.35;14.93;;;;;;;;;;4786476;30;20062;-70
2024/01/18 12:34:50;;;;;;;20.85;14.10;;;;;;;;;;4786408;30;20056;-71
2024/01/18 12:37:18;;;;;;;23.95;15.90;;;;;;;;;;4787532;30;20116;-70
2024/01/18 12:39:46;;;;;;;22.23;16.42;;;;;;;;;;4787759;30;20424;-71
2024/01/18 12:42:13;;;;;;;22.23;15.35;;;;;;;;;;4788049;29;20511;-70
2024/01/18 12:44:41;;;;;;;25.17;17.05;;;;;;;;;;4787769;30;20050;-70
2024/01/18 12:47:09;;;;;;;22.73;15.95;;;;;;;;;;4786424;30;20048;-69
2024/01/18 12:49:39;;;;;;;22.48;15.52;;;;;;;;;;4787478;30;20101;-69
2024/01/18 12:52:07;;;;;;;23.70;15.95;;;;;;;;;;4787547;30;20044;-70
2024/01/18 12:54:35;;;;;;;26.60;17.55;;;;;;;;;;4787633;30;20409;-69
2024/01/18 12:57:05;;;;;;;31.38;19.27;;;;;;;;;;4787379;30;20126;-69
2024/01/18 12:59:33;;;;;;;30.08;18.52;;;;;;;;;;4787567;30;20418;-69
2024/01/18 13:02:01;;;;;;;26.77;17.63;;;;;;;;;;4786235;30;20062;-69
2024/01/18 13:04:31;;;;;;;28.25;19.13;;;;;;;;;;4787503;30;20409;-69
2024/01/18 13:07:00;;;;;;;25.50;16.60;;;;;;;;;;4787403;30;20408;-69
2024/01/18 13:09:31;;;;;;;26.88;17.33;;;;;;;;;;4785878;30;20146;-69
2024/01/18 13:12:02;;;;;;;28.20;18.83;;;;;;;;;;4787290;30;20116;-69
2024/01/18 13:14:32;;;;;;;29.02;18.40;;;;;;;;;;4786012;29;20086;-69
2024/01/18 13:17:00;;;;;;;41.00;25.50;;;;;;;;;;4787299;30;20039;-69
2024/01/18 13:19:28;;;;;;;38.95;24.98;;;;;;;;;;4787194;30;20051;-68
2024/01/18 13:21:57;;;;;;;45.83;26.88;;;;;;;;;;4771549;30;20402;-69
2024/01/18 13:24:25;;;;;;;42.03;27.20;;;;;;;;;;4787012;30;20070;-69
2024/01/18 13:26:53;;;;;;;40.92;26.98;;;;;;;;;;4787150;30;20043;-69
2024/01/18 13:29:21;;;;;;;38.08;24.70;;;;;;;;;;4785974;30;20524;-68
2024/01/18 13:31:48;;;;;;;38.67;24.40;;;;;;;;;;4788332;29;20130;-69
2024/01/18 13:34:16;;;;;;;34.92;23.00;;;;;;;;;;4790437;30;20057;-69
2024/01/18 13:36:46;;;;;;;38.63;24.52;;;;;;;;;;4790470;30;20131;-69
2024/01/18 13:39:14;;;;;;;37.85;24.80;;;;;;;;;;4790546;30;20100;-69
2024/01/18 13:41:41;;;;;;;40.20;24.17;;;;;;;;;;4790456;30;20494;-69
2024/01/18 13:44:09;;;;;;;39.90;24.75;;;;;;;;;;4790341;30;20498;-69
2024/01/18 13:46:37;;;;;;;41.97;23.80;;;;;;;;;;4790404;30;20043;-69
2024/01/18 13:49:05;;;;;;;43.70;27.00;;;;;;;;;;4790241;30;20093;-70
2024/01/18 13:51:33;;;;;;;45.58;26.65;;;;;;;;;;4790285;30;20050;-69
2024/01/18 13:54:01;;;;;;;46.75;27.98;;;;;;;;;;4790241;30;20116;-69
2024/01/18 13:56:28;;;;;;;44.75;27.70;;;;;;;;;;4788709;30;20048;-69
2024/01/18 13:58:56;;;;;;;52.58;28.42;;;;;;;;;;4790136;30;20058;-70
2024/01/18 14:01:24;;;;;;;44.70;26.00;;;;;;;;;;4790038;30;20135;-70
2024/01/18 14:03:52;;;;;;;47.22;26.65;;;;;;;;;;4790086;30;20048;-70
2024/01/18 14:06:22;;;;;;;43.15;26.05;;;;;;;;;;4789865;30;20079;-70
2024/01/18 14:08:51;;;;;;;45.92;26.15;;;;;;;;;;4790421;30;20051;-70
2024/01/18 14:11:19;;;;;;;44.30;27.48;;;;;;;;;;4790129;30;20406;-70
2024/01/18 14:13:46;;;;;;;42.65;27.90;;;;;;;;;;4790088;30;20521;-70
2024/01/18 14:16:14;;;;;;;53.00;32.75;;;;;;;;;;4789797;30;20055;-70
2024/01/18 14:18:42;;;;;;;47.92;33.05;;;;;;;;;;4789821;30;20047;-70
2024/01/18 14:21:10;;;;;;;57.50;35.10;;;;;;;;;;4789783;30;20164;-68
2024/01/18 14:23:38;;;;;;;49.47;31.95;;;;;;;;;;4789876;30;20047;-68